Time;durP1;ratioP1;P1;durP2;ratioP2;P2;SDS_P1;SDS_P2;PMS_P1;PMS_P2;Temp;Humidity;BMP_temperature;BMP_pressure;BME280_temperature;BME280_humidity;BME280_pressure;Samples;Min_cycle;Max_cycle;Signal;HPM_P1;HPM_P2
2022/04/11 00:01:14;;;;;;;1.63;1.50;;;;;;;5.00;88.15;101550.88;5019205;28;20237;-54
2022/04/11 00:03:40;;;;;;;5.80;2.20;;;;;;;4.97;88.21;101540.34;5019663;28;20233;-54
2022/04/11 00:06:06;;;;;;;3.47;2.07;;;;;;;5.01;88.27;101547.44;5024953;28;20703;-53
2022/04/11 00:08:32;;;;;;;5.67;2.27;;;;;;;4.90;88.66;101548.78;5022832;28;20657;-54
2022/04/11 00:10:59;;;;;;;4.67;2.53;;;;;;;4.94;88.58;101540.25;5032869;28;20874;-54
2022/04/11 00:13:25;;;;;;;6.33;2.00;;;;;;;4.92;88.36;101537.59;5027567;28;20286;-53
2022/04/11 00:15:52;;;;;;;4.20;2.00;;;;;;;4.83;89.41;101536.38;5025548;28;20302;-53
2022/04/11 00:18:19;;;;;;;2.07;1.60;;;;;;;4.76;90.06;101536.16;5023989;28;20310;-53
2022/04/11 00:20:47;;;;;;;4.20;1.73;;;;;;;4.65;89.46;101540.09;5021721;28;20259;-53
2022/04/11 00:23:14;;;;;;;5.70;1.90;;;;;;;4.54;90.25;101538.84;5026012;28;20227;-54
2022/04/11 00:25:40;;;;;;;3.43;1.97;;;;;;;4.58;91.11;101540.72;5023214;28;20244;-54
2022/04/11 00:28:06;;;;;;;2.80;1.70;;;;;;;4.53;90.49;101539.69;5025681;28;20252;-52
2022/04/11 00:30:33;;;;;;;4.43;1.87;;;;;;;4.56;90.81;101537.16;5025272;28;20259;-53
2022/04/11 00:32:59;;;;;;;4.33;1.83;;;;;;;4.45;91.03;101533.28;5026400;28;20286;-53
2022/04/11 00:35:27;;;;;;;5.23;1.70;;;;;;;4.45;92.19;101539.38;5020849;28;20260;-57
2022/04/11 00:37:53;;;;;;;2.27;1.60;;;;;;;4.51;92.10;101542.22;5027257;28;20240;-55
2022/04/11 00:40:20;;;;;;;4.03;1.50;;;;;;;4.50;92.12;101540.44;5026154;28;20245;-54
2022/04/11 00:42:48;;;;;;;4.30;1.73;;;;;;;4.54;92.77;101536.25;5023172;28;20616;-53
2022/04/11 00:45:14;;;;;;;1.73;1.37;;;;;;;4.37;91.61;101530.41;5026046;28;20237;-56
2022/04/11 00:47:41;;;;;;;6.17;2.73;;;;;;;4.27;92.35;101529.19;5021334;28;20236;-58
2022/04/11 00:50:09;;;;;;;5.40;1.90;;;;;;;4.24;93.03;101534.25;5026407;28;20235;-55
2022/04/11 00:52:39;;;;;;;3.20;2.13;;;;;;;4.12;92.87;101538.13;5031661;28;20235;-53
2022/04/11 00:55:07;;;;;;;5.93;2.00;;;;;;;4.04;94.39;101536.13;5028792;28;20278;-53
2022/04/11 00:57:34;;;;;;;5.83;1.90;;;;;;;4.07;94.79;101538.84;5030369;28;20233;-54
2022/04/11 01:00:00;;;;;;;3.87;1.90;;;;;;;4.06;94.14;101544.84;5022921;28;20733;-53
2022/04/11 01:02:27;;;;;;;4.13;2.13;;;;;;;4.06;94.91;101539.66;5026768;28;20260;-53
2022/04/11 01:04:53;;;;;;;4.00;1.87;;;;;;;4.01;94.75;101546.41;5034260;28;21016;-54
2022/04/11 01:07:20;;;;;;;2.23;1.43;;;;;;;3.93;95.28;101536.53;5024807;28;20262;-59
2022/04/11 01:09:48;;;;;;;6.07;2.20;;;;;;;3.91;95.98;101545.97;5023769;28;20243;-54
2022/04/11 01:12:15;;;;;;;4.83;1.67;;;;;;;3.88;96.52;101543.25;5015314;28;20271;-54
2022/04/11 01:14:41;;;;;;;7.57;2.57;;;;;;;3.80;96.24;101540.38;5028854;28;20796;-55
2022/04/11 01:17:08;;;;;;;5.07;2.33;;;;;;;3.90;95.55;101549.41;5026771;28;20244;-54
2022/04/11 01:19:35;;;;;;;2.47;1.60;;;;;;;3.75;96.28;101542.75;5025022;28;20256;-54
2022/04/11 01:22:03;;;;;;;5.73;1.50;;;;;;;3.59;97.82;101540.41;5019888;28;20240;-54
2022/04/11 01:24:30;;;;;;;6.27;1.57;;;;;;;3.55;97.59;101541.09;5024077;28;20773;-58
2022/04/11 01:26:56;;;;;;;6.00;1.93;;;;;;;3.53;98.52;101542.75;5013440;28;20240;-53
2022/04/11 01:29:22;;;;;;;5.80;1.60;;;;;;;3.58;98.35;101544.72;5004862;28;20229;-54
2022/04/11 01:31:49;;;;;;;2.47;1.80;;;;;;;3.64;97.53;101548.38;5013320;28;20299;-53
2022/04/11 01:34:15;;;;;;;8.63;2.33;;;;;;;3.67;98.08;101544.19;5025556;28;20251;-54
2022/04/11 01:36:41;;;;;;;4.10;1.93;;;;;;;3.67;97.71;101540.69;5023537;28;20286;-53
2022/04/11 01:39:09;;;;;;;3.90;1.83;;;;;;;3.63;97.88;101557.88;5012919;28;20248;-53
2022/04/11 01:41:35;;;;;;;1.93;1.77;;;;;;;3.65;98.22;101550.13;5012738;28;20290;-53
2022/04/11 01:44:02;;;;;;;3.63;1.83;;;;;;;3.55;98.14;101548.91;5017505;28;20244;-53
2022/04/11 01:46:28;;;;;;;3.33;1.83;;;;;;;3.56;98.22;101545.47;5005520;28;20290;-53
2022/04/11 01:48:54;;;;;;;4.80;2.00;;;;;;;3.50;98.39;101546.09;5014285;28;20232;-53
2022/04/11 01:51:21;;;;;;;2.90;1.57;;;;;;;3.56;98.53;101545.47;5018840;28;20647;-54
2022/04/11 01:53:47;;;;;;;5.20;2.30;;;;;;;3.45;97.62;101536.38;5027213;28;20271;-53
2022/04/11 01:56:15;;;;;;;3.30;1.80;;;;;;;3.43;98.13;101545.78;5024206;28;20268;-53
2022/04/11 01:58:41;;;;;;;2.13;1.67;;;;;;;3.43;97.89;101544.06;5015726;28;20233;-56
2022/04/11 02:01:07;;;;;;;5.97;2.67;;;;;;;3.54;97.08;101541.91;5017449;28;20231;-53
2022/04/11 02:03:34;;;;;;;4.43;1.80;;;;;;;3.46;97.14;101538.13;5022999;28;20733;-54
2022/04/11 02:06:00;;;;;;;4.60;2.00;;;;;;;3.52;97.60;101538.38;5025704;28;20264;-53
2022/04/11 02:08:26;;;;;;;4.43;1.60;;;;;;;3.29;97.96;101540.91;5037758;28;20231;-53
2022/04/11 02:10:53;;;;;;;5.00;1.83;;;;;;;3.32;98.26;101535.84;5040371;28;20297;-53
2022/04/11 02:13:21;;;;;;;3.03;1.77;;;;;;;3.32;98.20;101543.63;5014653;28;20744;-53
2022/04/11 02:15:48;;;;;;;3.93;1.80;;;;;;;3.29;98.01;101535.72;5023348;28;20237;-53
2022/04/11 02:18:14;;;;;;;4.17;1.80;;;;;;;3.25;98.77;101544.19;5016658;28;20326;-52
2022/04/11 02:20:40;;;;;;;4.03;1.90;;;;;;;3.42;98.26;101536.22;5009366;28;20659;-56
2022/04/11 02:23:06;;;;;;;3.53;1.67;;;;;;;3.48;98.08;101531.31;5006951;28;20919;-53
2022/04/11 02:25:34;;;;;;;1.47;1.37;;;;;;;3.31;97.28;101528.88;5003553;28;20279;-53
2022/04/11 02:28:01;;;;;;;3.07;1.47;;;;;;;3.33;98.35;101536.72;5008614;28;20243;-54
2022/04/11 02:30:29;;;;;;;3.93;1.43;;;;;;;3.33;97.98;101540.25;5023352;28;20266;-54
2022/04/11 02:32:56;;;;;;;1.77;1.57;;;;;;;3.22;97.49;101541.47;5012779;28;20232;-53
2022/04/11 02:35:22;;;;;;;2.20;1.50;;;;;;;3.22;98.28;101538.88;5022418;28;20702;-52
2022/04/11 02:37:48;;;;;;;5.23;1.37;;;;;;;3.23;98.88;101540.69;5022722;28;20722;-54
2022/04/11 02:40:16;;;;;;;10.67;1.63;;;;;;;3.21;98.71;101539.72;5030661;28;20717;-54
2022/04/11 02:42:44;;;;;;;1.83;1.37;;;;;;;3.13;98.77;101533.31;5028065;28;20239;-54
2022/04/11 02:45:10;;;;;;;2.73;1.50;;;;;;;3.09;98.92;101529.72;5023441;28;20324;-53
2022/04/11 02:47:38;;;;;;;3.60;1.80;;;;;;;3.16;99.01;101528.28;5022399;28;20704;-53
2022/04/11 02:50:06;;;;;;;2.63;2.10;;;;;;;3.10;99.75;101531.47;5023041;28;20302;-52
2022/04/11 02:52:32;;;;;;;3.80;1.77;;;;;;;3.09;99.88;101536.63;5023133;28;20643;-53
2022/04/11 02:54:59;;;;;;;2.33;1.80;;;;;;;3.15;99.93;101526.47;5023498;28;20257;-53
2022/04/11 02:57:25;;;;;;;4.50;1.93;;;;;;;3.10;99.91;101528.00;5023084;28;20314;-53
2022/04/11 02:59:52;;;;;;;2.30;2.07;;;;;;;3.21;99.65;101534.53;5022936;28;20290;-52
2022/04/11 03:02:19;;;;;;;2.63;1.87;;;;;;;3.09;99.31;101529.72;5027577;28;20294;-53
2022/04/11 03:04:46;;;;;;;1.97;1.80;;;;;;;3.10;100.00;101533.19;5023349;28;20263;-52
2022/04/11 03:07:13;;;;;;;7.37;2.20;;;;;;;3.08;99.97;101519.25;5008357;28;20276;-54
2022/04/11 03:09:39;;;;;;;4.10;1.80;;;;;;;3.07;100.00;101525.28;5027827;28;20240;-54
2022/04/11 03:12:07;;;;;;;2.63;1.87;;;;;;;3.10;100.00;101522.81;5022913;28;20236;-56
2022/04/11 03:14:33;;;;;;;4.13;2.33;;;;;;;3.08;100.00;101529.63;5023729;28;20264;-53
2022/04/11 03:17:00;;;;;;;2.97;1.73;;;;;;;3.07;100.00;101533.06;5016339;28;20410;-53
2022/04/11 03:19:26;;;;;;;2.43;1.90;;;;;;;3.03;100.00;101526.84;5019496;28;20276;-53
2022/04/11 03:21:54;;;;;;;2.40;2.10;;;;;;;3.14;100.00;101534.22;5023738;28;20333;-54
2022/04/11 03:24:20;;;;;;;1.83;1.63;;;;;;;3.04;100.00;101535.53;5019962;28;20643;-54
2022/04/11 03:26:46;;;;;;;2.90;1.77;;;;;;;2.95;100.00;101527.34;5031648;28;20608;-53
2022/04/11 03:29:13;;;;;;;1.70;1.60;;;;;;;2.97;100.00;101529.19;5023738;28;20330;-53
2022/04/11 03:31:39;;;;;;;3.57;1.60;;;;;;;2.97;100.00;101538.69;5027755;28;20246;-52
2022/04/11 03:34:06;;;;;;;4.93;2.10;;;;;;;2.89;100.00;101535.75;5027258;28;20711;-54
2022/04/11 03:36:32;;;;;;;4.03;2.40;;;;;;;2.96;100.00;101531.72;5027026;28;20248;-53
2022/04/11 03:39:00;;;;;;;4.93;2.30;;;;;;;2.94;100.00;101541.13;5027948;28;20235;-53
2022/04/11 03:41:26;;;;;;;6.83;1.80;;;;;;;2.96;100.00;101542.09;5027135;28;20285;-54
2022/04/11 03:43:52;;;;;;;6.97;2.53;;;;;;;2.98;100.00;101548.22;5020519;28;20233;-54
2022/04/11 03:46:19;;;;;;;2.43;1.90;;;;;;;2.98;100.00;101548.22;5016055;28;20310;-54
2022/04/11 03:48:45;;;;;;;3.03;1.70;;;;;;;2.93;100.00;101545.44;5019693;28;20229;-54
2022/04/11 03:51:11;;;;;;;2.83;1.50;;;;;;;2.79;100.00;101547.44;5019146;28;20717;-56
2022/04/11 03:53:38;;;;;;;4.20;2.70;;;;;;;2.79;100.00;101543.97;5018969;28;20650;-53
2022/04/11 03:56:06;;;;;;;2.40;1.70;;;;;;;2.79;100.00;101542.25;5020426;28;20241;-53
2022/04/11 03:58:32;;;;;;;7.20;2.27;;;;;;;2.84;100.00;101543.34;5024447;28;20255;-53
2022/04/11 04:00:59;;;;;;;5.17;2.60;;;;;;;2.80;100.00;101541.41;5021917;28;20286;-54
2022/04/11 04:03:26;;;;;;;4.53;1.53;;;;;;;2.90;100.00;101555.69;5025743;28;20351;-54
2022/04/11 04:05:52;;;;;;;2.57;2.23;;;;;;;2.85;100.00;101552.00;5025571;28;20239;-54
2022/04/11 04:08:18;;;;;;;3.53;2.17;;;;;;;2.75;100.00;101548.13;5011584;28;20256;-54
2022/04/11 04:10:45;;;;;;;5.37;2.37;;;;;;;2.81;100.00;101548.41;5013971;28;20243;-54
2022/04/11 04:13:13;;;;;;;6.13;2.20;;;;;;;2.77;100.00;101548.19;5022770;28;20233;-54
2022/04/11 04:15:39;;;;;;;3.17;2.30;;;;;;;2.67;100.00;101546.91;5025769;28;20270;-54
2022/04/11 04:18:06;;;;;;;2.53;2.07;;;;;;;2.59;100.00;101543.06;5019963;28;20260;-53
2022/04/11 04:20:32;;;;;;;5.30;2.77;;;;;;;2.63;100.00;101542.38;5014314;28;20297;-52
2022/04/11 04:22:59;;;;;;;5.20;2.33;;;;;;;2.77;100.00;101545.59;5021161;28;20236;-53
2022/04/11 04:25:25;;;;;;;5.83;2.07;;;;;;;2.76;100.00;101549.00;5016132;28;20266;-53
2022/04/11 04:27:51;;;;;;;3.70;2.20;;;;;;;2.77;100.00;101549.09;5009714;28;20239;-53
2022/04/11 04:30:19;;;;;;;4.73;2.30;;;;;;;2.80;100.00;101554.38;5024568;28;20245;-53
2022/04/11 04:32:47;;;;;;;5.30;2.57;;;;;;;2.80;100.00;101546.59;5024932;28;20360;-53
2022/04/11 04:35:13;;;;;;;4.60;2.13;;;;;;;2.73;100.00;101549.75;5025439;28;20916;-53
2022/04/11 04:37:40;;;;;;;2.53;2.33;;;;;;;2.73;100.00;101556.66;5021732;28;20295;-53
2022/04/11 04:40:07;;;;;;;4.50;2.93;;;;;;;2.80;100.00;101556.97;5024122;28;20266;-53
2022/04/11 04:42:33;;;;;;;2.40;2.00;;;;;;;2.79;100.00;101552.63;5025251;28;20671;-53
2022/04/11 04:45:00;;;;;;;2.73;2.50;;;;;;;2.78;100.00;101553.44;5020448;28;20896;-53
2022/04/11 04:47:28;;;;;;;2.50;2.13;;;;;;;2.79;100.00;101552.63;5025503;28;20296;-53
2022/04/11 04:49:54;;;;;;;3.43;2.30;;;;;;;2.86;100.00;101554.66;5011834;28;20235;-53
2022/04/11 04:52:20;;;;;;;3.30;2.40;;;;;;;2.81;100.00;101565.66;5025238;28;20278;-53
2022/04/11 04:54:47;;;;;;;2.50;2.30;;;;;;;2.77;100.00;101564.66;5024770;28;20453;-53
2022/04/11 04:57:13;;;;;;;2.93;2.37;;;;;;;2.79;100.00;101563.00;5025335;28;20255;-54
2022/04/11 04:59:39;;;;;;;5.93;3.27;;;;;;;2.78;100.00;101571.59;5026793;28;20282;-53
2022/04/11 05:02:06;;;;;;;6.23;2.00;;;;;;;2.80;100.00;101566.47;5024536;28;20308;-53
2022/04/11 05:04:34;;;;;;;2.43;2.20;;;;;;;2.84;100.00;101566.69;5029572;28;20263;-52
2022/04/11 05:07:00;;;;;;;3.87;2.33;;;;;;;2.84;100.00;101571.88;5025298;28;20243;-54
2022/04/11 05:09:27;;;;;;;3.63;2.33;;;;;;;2.85;100.00;101573.63;5017682;28;20282;-53
2022/04/11 05:11:53;;;;;;;2.23;1.90;;;;;;;2.92;100.00;101579.09;5024850;28;20947;-53
2022/04/11 05:14:20;;;;;;;2.80;2.43;;;;;;;2.89;100.00;101573.78;5013234;28;20261;-53
2022/04/11 05:16:46;;;;;;;3.23;2.53;;;;;;;2.94;100.00;101580.03;5010948;28;20241;-53
2022/04/11 05:19:13;;;;;;;3.80;2.37;;;;;;;2.97;100.00;101587.97;5015701;28;20232;-55
2022/04/11 05:21:41;;;;;;;3.10;2.43;;;;;;;3.03;100.00;101593.41;5022459;28;20377;-53
2022/04/11 05:24:07;;;;;;;4.50;3.00;;;;;;;3.08;100.00;101590.19;5020648;28;20281;-53
2022/04/11 05:26:33;;;;;;;6.50;3.17;;;;;;;3.04;100.00;101587.41;5024761;28;20231;-53
2022/04/11 05:29:00;;;;;;;4.83;2.90;;;;;;;3.09;100.00;101585.91;5019302;28;20247;-53
2022/04/11 05:31:26;;;;;;;7.13;3.00;;;;;;;3.18;100.00;101591.47;5025032;28;20255;-54
2022/04/11 05:33:52;;;;;;;4.00;3.00;;;;;;;2.98;100.00;101589.72;5024609;28;20236;-53
2022/04/11 05:36:19;;;;;;;7.23;3.57;;;;;;;3.11;100.00;101592.91;5021663;28;20240;-53
2022/04/11 05:38:46;;;;;;;6.50;3.13;;;;;;;3.08;100.00;101586.72;5019363;28;20754;-53
2022/04/11 05:41:14;;;;;;;7.47;3.17;;;;;;;3.04;100.00;101590.00;5024809;28;20239;-54
2022/04/11 05:43:41;;;;;;;3.70;2.90;;;;;;;3.08;100.00;101591.91;5016002;28;20319;-53
2022/04/11 05:46:07;;;;;;;5.80;2.40;;;;;;;3.18;100.00;101596.66;5023281;28;20320;-53
2022/04/11 05:48:34;;;;;;;5.67;3.40;;;;;;;3.30;100.00;101605.00;5020864;28;20267;-53
2022/04/11 05:51:00;;;;;;;5.60;4.03;;;;;;;3.27;100.00;101597.06;5019899;28;20229;-54
2022/04/11 05:53:27;;;;;;;5.87;2.53;;;;;;;3.26;100.00;101590.06;5022728;28;20701;-52
2022/04/11 05:55:55;;;;;;;3.93;2.90;;;;;;;3.35;100.00;101590.47;5022598;28;20268;-52
2022/04/11 05:58:21;;;;;;;6.60;3.67;;;;;;;3.53;99.85;101586.88;5023246;28;20790;-53
2022/04/11 06:00:47;;;;;;;4.93;3.03;;;;;;;3.49;98.88;101595.38;5019974;28;20643;-53
2022/04/11 06:03:14;;;;;;;4.80;3.40;;;;;;;3.50;99.79;101603.19;5025997;28;20329;-54
2022/04/11 06:05:40;;;;;;;4.67;2.53;;;;;;;3.64;98.66;101592.50;5024567;28;20248;-53
2022/04/11 06:08:07;;;;;;;5.37;4.17;;;;;;;3.56;98.56;101598.28;5003189;28;20237;-54
2022/04/11 06:10:35;;;;;;;7.17;3.37;;;;;;;3.55;98.03;101595.63;5020615;28;20901;-54
2022/04/11 06:13:03;;;;;;;3.60;2.47;;;;;;;3.65;97.42;101613.38;5003441;28;20315;-54
2022/04/11 06:15:29;;;;;;;4.33;2.97;;;;;;;3.74;97.64;101605.94;5019783;28;20263;-53
2022/04/11 06:17:55;;;;;;;3.13;2.83;;;;;;;3.96;96.01;101606.78;5019569;28;20233;-54
2022/04/11 06:20:22;;;;;;;2.37;2.17;;;;;;;3.98;95.03;101607.75;5020572;28;20370;-54
2022/04/11 06:22:48;;;;;;;7.00;2.73;;;;;;;4.02;95.19;101605.31;5023200;28;20243;-52
2022/04/11 06:25:14;;;;;;;6.90;2.80;;;;;;;4.13;95.29;101610.06;5014438;28;20327;-54
2022/04/11 06:27:41;;;;;;;9.00;3.03;;;;;;;4.21;93.60;101601.75;5019625;28;20244;-53
2022/04/11 06:30:09;;;;;;;4.50;2.90;;;;;;;4.34;92.71;101608.28;5030039;28;20293;-54
2022/04/11 06:32:36;;;;;;;5.10;2.77;;;;;;;4.50;92.59;101614.97;5023673;28;20262;-53
2022/04/11 06:35:02;;;;;;;5.27;2.77;;;;;;;4.60;90.33;101610.97;5015625;28;20245;-54
2022/04/11 06:37:29;;;;;;;5.60;2.67;;;;;;;4.67;89.45;101613.88;5022947;28;20240;-54
2022/04/11 06:39:55;;;;;;;4.20;2.90;;;;;;;4.70;89.12;101621.81;5018357;28;20268;-54
2022/04/11 06:42:22;;;;;;;6.93;2.63;;;;;;;4.91;87.13;101618.19;5021631;28;20236;-54
2022/04/11 06:44:49;;;;;;;2.50;2.30;;;;;;;5.00;86.56;101621.13;5019580;28;20268;-53
2022/04/11 06:47:18;;;;;;;6.50;2.50;;;;;;;4.96;85.64;101627.94;5022628;28;20255;-53
2022/04/11 06:49:45;;;;;;;4.63;2.70;;;;;;;5.00;85.60;101626.34;5015935;28;20417;-54
2022/04/11 06:52:11;;;;;;;4.67;3.10;;;;;;;5.07;85.27;101627.44;5028782;28;20238;-54
2022/04/11 06:54:37;;;;;;;4.43;2.93;;;;;;;5.21;85.14;101626.22;5024173;28;20229;-54
2022/04/11 06:57:04;;;;;;;4.77;2.77;;;;;;;5.32;83.51;101621.38;5009392;28;20768;-53
2022/04/11 06:59:31;;;;;;;5.93;2.37;;;;;;;5.31;83.45;101630.03;5023898;28;20335;-54
2022/04/11 07:01:57;;;;;;;5.47;2.83;;;;;;;5.37;82.20;101625.94;5027219;28;20916;-54
2022/04/11 07:04:25;;;;;;;3.10;2.40;;;;;;;5.44;82.22;101627.00;5024753;28;20248;-53
2022/04/11 07:06:51;;;;;;;2.80;2.30;;;;;;;5.53;81.38;101627.31;5026874;28;20289;-53
2022/04/11 07:09:17;;;;;;;2.53;2.33;;;;;;;5.56;80.70;101627.44;5024586;28;20787;-53
2022/04/11 07:11:44;;;;;;;3.07;2.40;;;;;;;5.64;79.22;101623.34;5026744;28;20935;-54
2022/04/11 07:14:11;;;;;;;4.43;2.37;;;;;;;5.75;78.34;101627.19;5026104;28;20310;-54
2022/04/11 07:16:37;;;;;;;2.33;1.80;;;;;;;5.93;77.52;101629.56;5029624;28;20706;-54
2022/04/11 07:19:04;;;;;;;2.00;1.80;;;;;;;6.01;75.65;101634.16;5022865;28;20576;-53
2022/04/11 07:21:31;;;;;;;4.80;2.20;;;;;;;6.08;75.41;101631.78;5031099;28;20228;-53
2022/04/11 07:23:58;;;;;;;3.43;1.80;;;;;;;6.18;71.36;101628.63;5030793;28;20358;-53
2022/04/11 07:26:24;;;;;;;5.00;2.77;;;;;;;6.41;69.51;101637.16;5015396;28;21008;-55
2022/04/11 07:28:50;;;;;;;5.17;1.97;;;;;;;6.51;68.76;101620.06;5024972;28;20236;-53
2022/04/11 07:31:17;;;;;;;3.03;2.13;;;;;;;6.48;68.17;101634.72;5025811;28;20278;-53
2022/04/11 07:33:43;;;;;;;6.50;2.20;;;;;;;6.43;67.97;101629.38;5023149;28;20228;-54
2022/04/11 07:36:10;;;;;;;2.77;2.47;;;;;;;6.58;68.01;101637.66;5024985;28;20244;-54
2022/04/11 07:38:38;;;;;;;3.97;1.70;;;;;;;6.47;67.15;101639.06;5024406;28;20341;-53
2022/04/11 07:41:04;;;;;;;8.83;2.40;;;;;;;6.76;65.64;101639.91;5015283;28;20244;-53
2022/04/11 07:43:32;;;;;;;2.27;1.40;;;;;;;6.66;64.87;101630.06;5021061;28;20232;-53
2022/04/11 07:46:01;;;;;;;3.43;1.20;;;;;;;6.88;65.72;101626.31;5014502;28;20738;-53
2022/04/11 07:48:27;;;;;;;3.90;2.47;;;;;;;7.06;65.54;101632.09;5013181;28;20245;-53
2022/04/11 07:50:53;;;;;;;4.77;2.17;;;;;;;6.93;64.05;101629.97;5023665;28;20225;-53
2022/04/11 07:53:20;;;;;;;1.90;1.20;;;;;;;7.10;63.08;101633.94;5026677;28;20313;-54
2022/04/11 07:55:47;;;;;;;2.53;1.50;;;;;;;7.20;63.50;101631.59;5024349;28;20244;-54
2022/04/11 07:58:15;;;;;;;4.57;1.77;;;;;;;7.33;63.02;101628.44;5015544;28;20224;-54
2022/04/11 08:00:41;;;;;;;2.57;1.87;;;;;;;7.36;62.75;101637.25;5024910;28;20257;-51
2022/04/11 08:03:09;;;;;;;2.67;1.57;;;;;;;7.44;60.83;101634.84;5020267;28;20263;-52
2022/04/11 08:05:35;;;;;;;2.40;1.73;;;;;;;7.73;58.68;101632.97;5023929;28;20313;-53
2022/04/11 08:08:01;;;;;;;3.30;1.60;;;;;;;7.80;60.24;101639.25;5022994;28;20232;-52
2022/04/11 08:10:28;;;;;;;2.43;1.13;;;;;;;7.86;58.67;101634.16;5024073;28;20488;-54
2022/04/11 08:12:57;;;;;;;4.47;1.87;;;;;;;7.97;56.58;101632.69;5024241;28;20489;-54
2022/04/11 08:15:24;;;;;;;3.77;1.87;;;;;;;8.11;56.57;101630.41;5022884;28;20282;-52
2022/04/11 08:17:50;;;;;;;2.30;1.60;;;;;;;8.32;55.53;101630.91;5028434;28;20259;-52
2022/04/11 08:20:17;;;;;;;3.60;1.20;;;;;;;8.27;54.80;101627.28;5014954;28;20692;-54
2022/04/11 08:22:43;;;;;;;2.10;1.63;;;;;;;8.38;54.82;101635.41;5025442;28;20233;-56
2022/04/11 08:25:10;;;;;;;3.20;1.63;;;;;;;8.56;55.08;101648.94;5024421;28;20260;-52
2022/04/11 08:27:37;;;;;;;1.53;1.07;;;;;;;8.65;54.64;101636.88;5010320;28;20228;-52
2022/04/11 08:30:06;;;;;;;3.37;1.67;;;;;;;8.76;54.77;101633.63;5023521;28;20243;-52
2022/04/11 08:32:38;;;;;;;2.30;1.30;;;;;;;8.74;51.62;101645.81;5023218;28;20225;-52
2022/04/11 08:35:05;;;;;;;2.87;1.40;;;;;;;8.91;51.48;101638.28;5025085;28;20315;-53
2022/04/11 08:37:31;;;;;;;1.33;1.23;;;;;;;8.93;50.63;101635.72;5026634;28;20232;-53
2022/04/11 08:39:57;;;;;;;3.47;1.20;;;;;;;9.03;50.29;101642.91;5030232;28;20537;-52
2022/04/11 08:42:24;;;;;;;1.37;1.23;;;;;;;9.16;51.66;101637.06;5023635;28;20295;-52
2022/04/11 08:44:53;;;;;;;1.40;1.30;;;;;;;9.33;50.50;101637.34;5026770;28;20304;-52
2022/04/11 08:47:21;;;;;;;2.00;1.10;;;;;;;9.23;48.38;101638.03;5024028;28;20255;-52
2022/04/11 08:49:47;;;;;;;5.20;1.60;;;;;;;9.49;47.93;101639.41;5030135;28;20770;-53
2022/04/11 08:52:14;;;;;;;4.33;1.43;;;;;;;9.51;47.06;101628.94;5024136;28;20724;-55
2022/04/11 08:54:41;;;;;;;1.57;1.17;;;;;;;9.48;47.86;101637.66;5023343;28;20318;-54
2022/04/11 08:57:07;;;;;;;4.87;1.57;;;;;;;9.48;46.64;101637.66;5010819;28;20241;-53
2022/04/11 08:59:34;;;;;;;2.60;1.30;;;;;;;9.45;46.25;101632.34;5018429;28;20268;-52
2022/04/11 09:02:00;;;;;;;2.03;0.90;;;;;;;9.17;46.05;101632.69;5021704;28;20225;-52
2022/04/11 09:04:28;;;;;;;1.43;1.00;;;;;;;9.23;46.65;101635.41;5025053;28;20232;-52
2022/04/11 09:06:56;;;;;;;1.27;0.80;;;;;;;9.33;46.03;101626.88;5016766;28;20237;-52
2022/04/11 09:09:37;;;;;;;1.67;1.17;;;;;;;9.28;44.55;101620.69;5017793;28;20219;-51
2022/04/11 09:12:05;;;;;;;2.87;1.30;;;;;;;9.53;45.28;101625.50;5023586;28;20232;-51
2022/04/11 09:14:32;;;;;;;5.60;1.50;;;;;;;9.71;43.48;101624.03;5020092;28;20236;-52
2022/04/11 09:16:59;;;;;;;1.13;1.03;;;;;;;9.51;42.93;101627.22;5023508;28;20315;-52
2022/04/11 09:19:28;;;;;;;1.10;1.00;;;;;;;9.59;42.75;101618.63;5022251;28;20244;-51
2022/04/11 09:21:55;;;;;;;1.10;0.97;;;;;;;9.76;42.51;101617.16;5022840;28;20286;-52
2022/04/11 09:24:24;;;;;;;0.90;0.90;;;;;;;9.57;42.11;101615.94;5024108;28;20784;-53
2022/04/11 09:26:55;;;;;;;2.63;1.10;;;;;;;9.65;41.78;101610.81;5025238;28;20267;-52
2022/04/11 09:29:22;;;;;;;9.00;0.93;;;;;;;9.62;39.15;101619.53;5023226;28;20291;-54
2022/04/11 09:31:48;;;;;;;2.43;0.60;;;;;;;9.85;39.14;101606.78;5022638;28;20237;-54
2022/04/11 09:34:17;;;;;;;4.10;1.10;;;;;;;9.95;39.96;101608.72;5019258;28;20225;-53
2022/04/11 09:36:45;;;;;;;2.20;1.20;;;;;;;10.37;40.00;101612.88;5026852;28;20252;-57
2022/04/11 09:39:13;;;;;;;1.90;1.20;;;;;;;10.70;38.92;101615.03;5022583;28;20616;-52
2022/04/11 09:41:42;;;;;;;1.50;1.40;;;;;;;10.81;38.02;101614.28;5015585;28;20248;-52
2022/04/11 09:44:22;;;;;;;0.80;0.80;;;;;;;10.59;37.58;101600.91;5018708;28;20311;-52
2022/04/11 09:46:49;;;;;;;1.07;0.90;;;;;;;10.74;39.90;101608.09;5023931;28;20236;-51
2022/04/11 09:49:16;;;;;;;1.90;1.33;;;;;;;10.84;38.42;101604.69;5024067;28;20233;-51
2022/04/11 09:52:07;;;;;;;1.07;0.90;;;;;;;10.84;38.46;101599.44;5011146;28;20256;-53
2022/04/11 09:54:36;;;;;;;2.30;0.93;;;;;;;10.79;38.58;101611.66;5017787;28;20315;-54
2022/04/11 09:57:03;;;;;;;1.27;0.80;;;;;;;10.94;39.03;101603.94;5020304;28;20424;-53
2022/04/11 09:59:29;;;;;;;0.80;0.80;;;;;;;10.95;37.83;101599.56;5015272;28;20237;-53
2022/04/11 10:01:57;;;;;;;2.70;1.23;;;;;;;10.70;37.60;101606.28;5016894;28;20310;-53
2022/04/11 10:04:24;;;;;;;2.10;1.13;;;;;;;10.75;38.85;101604.63;5014919;28;20247;-52
2022/04/11 10:06:52;;;;;;;1.07;0.93;;;;;;;10.64;38.32;101593.09;5016747;28;20246;-52
2022/04/11 10:09:21;;;;;;;1.20;1.10;;;;;;;10.39;39.22;101600.66;5017110;28;20323;-52
2022/04/11 10:11:49;;;;;;;1.80;1.00;;;;;;;10.63;40.17;101600.06;5018903;28;20319;-52
2022/04/11 10:14:17;;;;;;;1.53;1.20;;;;;;;10.87;38.87;101595.97;5030380;28;20236;-52
2022/04/11 10:16:45;;;;;;;1.30;1.20;;;;;;;11.04;39.21;101586.53;5022639;28;20240;-53
2022/04/11 10:19:12;;;;;;;5.17;1.20;;;;;;;11.03;38.79;101591.81;5017859;28;20333;-52
2022/04/11 10:21:40;;;;;;;1.23;0.90;;;;;;;10.92;38.21;101586.44;5008094;28;20267;-52
2022/04/11 10:24:10;;;;;;;1.27;1.17;;;;;;;10.71;37.70;101597.56;5022708;28;20239;-52
2022/04/11 10:26:44;;;;;;;1.07;0.97;;;;;;;10.47;37.58;101588.50;5019300;28;20328;-53
2022/04/11 10:29:32;;;;;;;1.75;1.33;;;;;;;10.82;37.66;101582.81;5018332;28;20425;-53
2022/04/11 10:32:06;;;;;;;3.43;1.47;;;;;;;10.86;38.39;101586.34;5030106;28;20275;-53
2022/04/11 10:34:53;;;;;;;3.00;2.17;;;;;;;10.48;38.38;101577.13;5024737;28;20435;-52
2022/04/11 10:37:21;;;;;;;1.77;1.55;;;;;;;10.68;37.31;101579.13;5023205;28;20489;-53
2022/04/11 10:39:48;;;;;;;3.70;1.53;;;;;;;10.68;38.20;101579.13;5028599;28;20700;-52
2022/04/11 10:42:23;;;;;;;4.70;1.53;;;;;;;10.69;37.58;101578.25;5030193;28;20240;-52
2022/04/11 10:44:53;;;;;;;1.93;1.60;;;;;;;10.73;38.38;101573.06;5027622;28;20331;-53
2022/04/11 10:47:30;;;;;;;3.50;1.47;;;;;;;10.94;38.26;101582.94;5026698;28;20278;-54
2022/04/11 10:50:21;;;;;;;2.93;1.20;;;;;;;10.96;37.89;101577.72;5025527;28;20315;-53
2022/04/11 10:52:55;;;;;;;2.03;1.57;;;;;;;10.95;38.66;101576.84;5033798;28;20231;-53
2022/04/11 10:55:23;;;;;;;2.30;1.03;;;;;;;10.87;38.11;101573.22;5026176;28;20231;-53
2022/04/11 10:57:51;;;;;;;2.80;1.63;;;;;;;10.70;39.02;101574.75;5018219;28;20729;-53
2022/04/11 11:00:20;;;;;;;3.53;1.40;;;;;;;10.88;38.71;101572.38;5022262;28;20244;-52
2022/04/11 11:03:08;;;;;;;4.17;1.93;;;;;;;10.79;38.88;101572.25;5027223;28;20240;-52
2022/04/11 11:05:36;;;;;;;1.73;1.48;;;;;;;10.67;39.50;101570.38;5021951;28;20913;-52
2022/04/11 11:08:25;;;;;;;3.57;1.97;;;;;;;10.48;39.41;101564.00;5027878;28;20236;-53
2022/04/11 11:10:53;;;;;;;1.47;1.37;;;;;;;10.46;39.92;101567.50;5024749;28;20618;-53
2022/04/11 11:13:39;;;;;;;1.60;1.50;;;;;;;10.36;40.04;101563.84;5028037;28;20243;-52
2022/04/11 11:16:29;;;;;;;1.40;1.30;;;;;;;10.37;40.32;101565.59;5020553;28;20240;-52
2022/04/11 11:19:18;;;;;;;4.53;2.43;;;;;;;10.43;40.06;101560.44;5024452;28;20232;-54
2022/04/11 11:22:03;;;;;;;4.70;1.23;;;;;;;10.24;40.39;101558.41;5026045;28;20232;-55
2022/04/11 11:24:29;;;;;;;10.23;1.60;;;;;;;10.16;40.30;101557.41;5025559;28;20229;-54
2022/04/11 11:26:59;;;;;;;4.40;1.70;;;;;;;10.21;40.05;101547.84;5024178;28;20272;-53
2022/04/11 11:29:26;;;;;;;3.23;1.90;;;;;;;10.30;40.47;101553.28;5011905;28;20225;-52
2022/04/11 11:31:56;;;;;;;1.80;1.40;;;;;;;10.26;40.82;101554.09;5025958;28;20466;-52